sensor_id;sensor_type;location;lat;lon;timestamp;P1;durP1;ratioP1;P2;durP2;ratioP2
75167;SDS011;63748;48.088;11.476;2023-03-04T00:01:13;31.83;;;13.13;;
75167;SDS011;63748;48.088;11.476;2023-03-04T00:03:39;32.63;;;14.60;;
75167;SDS011;63748;48.088;11.476;2023-03-04T00:06:06;34.97;;;13.48;;
75167;SDS011;63748;48.088;11.476;2023-03-04T00:08:32;34.78;;;15.20;;
75167;SDS011;63748;48.088;11.476;2023-03-04T00:10:58;39.53;;;13.95;;
75167;SDS011;63748;48.088;11.476;2023-03-04T00:13:24;32.60;;;14.60;;
75167;SDS011;63748;48.088;11.476;2023-03-04T00:15:50;37.75;;;14.02;;
75167;SDS011;63748;48.088;11.476;2023-03-04T00:18:16;37.72;;;13.70;;
75167;SDS011;63748;48.088;11.476;2023-03-04T00:20:44;29.67;;;14.30;;
75167;SDS011;63748;48.088;11.476;2023-03-04T00:23:10;30.33;;;14.23;;
75167;SDS011;63748;48.088;11.476;2023-03-04T00:25:36;35.58;;;14.93;;
75167;SDS011;63748;48.088;11.476;2023-03-04T00:28:02;34.40;;;13.05;;
75167;SDS011;63748;48.088;11.476;2023-03-04T00:30:29;34.58;;;14.05;;
75167;SDS011;63748;48.088;11.476;2023-03-04T00:32:55;31.35;;;13.05;;
75167;SDS011;63748;48.088;11.476;2023-03-04T00:35:21;29.48;;;12.48;;
75167;SDS011;63748;48.088;11.476;2023-03-04T00:37:47;28.65;;;13.43;;
75167;SDS011;63748;48.088;11.476;2023-03-04T00:40:13;30.13;;;14.60;;
75167;SDS011;63748;48.088;11.476;2023-03-04T00:42:39;36.92;;;13.60;;
75167;SDS011;63748;48.088;11.476;2023-03-04T00:45:05;32.65;;;12.05;;
75167;SDS011;63748;48.088;11.476;2023-03-04T00:47:31;29.13;;;12.95;;
75167;SDS011;63748;48.088;11.476;2023-03-04T00:49:57;26.52;;;12.07;;
75167;SDS011;63748;48.088;11.476;2023-03-04T00:52:23;27.83;;;13.02;;
75167;SDS011;63748;48.088;11.476;2023-03-04T00:54:49;33.45;;;13.77;;
75167;SDS011;63748;48.088;11.476;2023-03-04T00:57:16;23.58;;;11.57;;
75167;SDS011;63748;48.088;11.476;2023-03-04T00:59:42;36.33;;;14.27;;
75167;SDS011;63748;48.088;11.476;2023-03-04T01:02:08;31.40;;;13.70;;
75167;SDS011;63748;48.088;11.476;2023-03-04T01:04:35;26.65;;;12.10;;
75167;SDS011;63748;48.088;11.476;2023-03-04T01:07:01;35.05;;;14.63;;
75167;SDS011;63748;48.088;11.476;2023-03-04T01:09:27;29.17;;;12.45;;
75167;SDS011;63748;48.088;11.476;2023-03-04T01:11:53;34.80;;;14.02;;
75167;SDS011;63748;48.088;11.476;2023-03-04T01:14:19;32.45;;;12.95;;
75167;SDS011;63748;48.088;11.476;2023-03-04T01:16:45;35.20;;;13.80;;
75167;SDS011;63748;48.088;11.476;2023-03-04T01:19:11;30.40;;;13.45;;
75167;SDS011;63748;48.088;11.476;2023-03-04T01:21:37;29.83;;;13.15;;
75167;SDS011;63748;48.088;11.476;2023-03-04T01:24:03;26.10;;;11.48;;
75167;SDS011;63748;48.088;11.476;2023-03-04T01:26:29;32.30;;;13.70;;
75167;SDS011;63748;48.088;11.476;2023-03-04T01:28:55;29.42;;;13.00;;
75167;SDS011;63748;48.088;11.476;2023-03-04T01:31:21;25.08;;;12.45;;
75167;SDS011;63748;48.088;11.476;2023-03-04T01:33:48;30.27;;;12.45;;
75167;SDS011;63748;48.088;11.476;2023-03-04T01:36:14;33.03;;;13.88;;
75167;SDS011;63748;48.088;11.476;2023-03-04T01:38:40;31.23;;;12.88;;
75167;SDS011;63748;48.088;11.476;2023-03-04T01:41:06;28.15;;;12.85;;
75167;SDS011;63748;48.088;11.476;2023-03-04T01:43:32;30.00;;;13.10;;
75167;SDS011;63748;48.088;11.476;2023-03-04T01:46:00;31.77;;;13.30;;
75167;SDS011;63748;48.088;11.476;2023-03-04T01:48:30;29.67;;;13.30;;
75167;SDS011;63748;48.088;11.476;2023-03-04T01:50:58;31.17;;;12.90;;
75167;SDS011;63748;48.088;11.476;2023-03-04T01:53:27;28.23;;;13.05;;
75167;SDS011;63748;48.088;11.476;2023-03-04T01:55:55;29.70;;;13.32;;
75167;SDS011;63748;48.088;11.476;2023-03-04T01:58:23;30.42;;;13.38;;
75167;SDS011;63748;48.088;11.476;2023-03-04T02:00:50;31.00;;;12.05;;
75167;SDS011;63748;48.088;11.476;2023-03-04T02:03:17;29.27;;;13.02;;
75167;SDS011;63748;48.088;11.476;2023-03-04T02:05:45;25.63;;;12.82;;
75167;SDS011;63748;48.088;11.476;2023-03-04T02:08:11;29.70;;;13.07;;
75167;SDS011;63748;48.088;11.476;2023-03-04T02:10:38;30.25;;;12.63;;
75167;SDS011;63748;48.088;11.476;2023-03-04T02:13:05;29.75;;;13.45;;
75167;SDS011;63748;48.088;11.476;2023-03-04T02:15:31;26.08;;;11.63;;
75167;SDS011;63748;48.088;11.476;2023-03-04T02:17:57;28.45;;;13.10;;
75167;SDS011;63748;48.088;11.476;2023-03-04T02:20:33;29.60;;;13.13;;
75167;SDS011;63748;48.088;11.476;2023-03-04T02:23:02;33.60;;;13.25;;
75167;SDS011;63748;48.088;11.476;2023-03-04T02:25:34;29.73;;;13.30;;
75167;SDS011;63748;48.088;11.476;2023-03-04T02:28:02;27.13;;;11.98;;
75167;SDS011;63748;48.088;11.476;2023-03-04T02:30:28;29.23;;;13.50;;
75167;SDS011;63748;48.088;11.476;2023-03-04T02:32:54;31.55;;;13.02;;
75167;SDS011;63748;48.088;11.476;2023-03-04T02:35:20;25.40;;;11.40;;
75167;SDS011;63748;48.088;11.476;2023-03-04T02:37:47;26.80;;;11.68;;
75167;SDS011;63748;48.088;11.476;2023-03-04T02:40:14;30.30;;;13.93;;
75167;SDS011;63748;48.088;11.476;2023-03-04T02:42:42;31.50;;;13.65;;
75167;SDS011;63748;48.088;11.476;2023-03-04T02:45:26;28.52;;;11.63;;
75167;SDS011;63748;48.088;11.476;2023-03-04T02:47:54;29.90;;;14.23;;
75167;SDS011;63748;48.088;11.476;2023-03-04T02:50:20;27.67;;;12.02;;
75167;SDS011;63748;48.088;11.476;2023-03-04T02:52:47;27.15;;;11.70;;
75167;SDS011;63748;48.088;11.476;2023-03-04T02:55:13;34.40;;;14.50;;
75167;SDS011;63748;48.088;11.476;2023-03-04T02:57:39;27.95;;;12.40;;
75167;SDS011;63748;48.088;11.476;2023-03-04T03:00:05;26.83;;;12.10;;
75167;SDS011;63748;48.088;11.476;2023-03-04T03:02:31;27.02;;;12.02;;
75167;SDS011;63748;48.088;11.476;2023-03-04T03:04:57;31.08;;;12.20;;
75167;SDS011;63748;48.088;11.476;2023-03-04T03:07:23;27.67;;;12.40;;
75167;SDS011;63748;48.088;11.476;2023-03-04T03:09:49;25.25;;;11.90;;
75167;SDS011;63748;48.088;11.476;2023-03-04T03:12:15;29.55;;;12.93;;
75167;SDS011;63748;48.088;11.476;2023-03-04T03:14:41;27.45;;;12.93;;
75167;SDS011;63748;48.088;11.476;2023-03-04T03:17:07;32.53;;;13.07;;
75167;SDS011;63748;48.088;11.476;2023-03-04T03:19:34;31.45;;;13.15;;
75167;SDS011;63748;48.088;11.476;2023-03-04T03:22:00;27.10;;;12.38;;
75167;SDS011;63748;48.088;11.476;2023-03-04T03:24:26;25.33;;;11.32;;
75167;SDS011;63748;48.088;11.476;2023-03-04T03:26:52;26.50;;;11.98;;
75167;SDS011;63748;48.088;11.476;2023-03-04T03:29:18;27.80;;;11.48;;
75167;SDS011;63748;48.088;11.476;2023-03-04T03:31:44;28.75;;;13.15;;
75167;SDS011;63748;48.088;11.476;2023-03-04T03:34:17;22.90;;;11.15;;
75167;SDS011;63748;48.088;11.476;2023-03-04T03:36:43;32.58;;;13.90;;
75167;SDS011;63748;48.088;11.476;2023-03-04T03:39:09;26.10;;;12.52;;
75167;SDS011;63748;48.088;11.476;2023-03-04T03:41:35;23.73;;;12.35;;
75167;SDS011;63748;48.088;11.476;2023-03-04T03:44:01;26.15;;;11.73;;
75167;SDS011;63748;48.088;11.476;2023-03-04T03:46:27;29.00;;;11.88;;
75167;SDS011;63748;48.088;11.476;2023-03-04T03:48:53;32.28;;;12.02;;
75167;SDS011;63748;48.088;11.476;2023-03-04T03:51:20;24.60;;;11.23;;
75167;SDS011;63748;48.088;11.476;2023-03-04T03:53:46;31.90;;;12.40;;
75167;SDS011;63748;48.088;11.476;2023-03-04T03:56:12;30.67;;;12.32;;
75167;SDS011;63748;48.088;11.476;2023-03-04T03:58:38;25.42;;;10.95;;
75167;SDS011;63748;48.088;11.476;2023-03-04T04:01:04;27.63;;;12.43;;
75167;SDS011;63748;48.088;11.476;2023-03-04T04:03:30;28.08;;;11.70;;
75167;SDS011;63748;48.088;11.476;2023-03-04T04:05:56;30.20;;;12.50;;
75167;SDS011;63748;48.088;11.476;2023-03-04T04:08:22;26.30;;;11.57;;
75167;SDS011;63748;48.088;11.476;2023-03-04T04:10:48;28.17;;;12.52;;
75167;SDS011;63748;48.088;11.476;2023-03-04T04:13:14;28.13;;;11.40;;
75167;SDS011;63748;48.088;11.476;2023-03-04T04:15:40;32.42;;;13.32;;
75167;SDS011;63748;48.088;11.476;2023-03-04T04:18:06;26.27;;;10.90;;
75167;SDS011;63748;48.088;11.476;2023-03-04T04:20:33;23.90;;;10.82;;
75167;SDS011;63748;48.088;11.476;2023-03-04T04:22:59;28.23;;;11.90;;
75167;SDS011;63748;48.088;11.476;2023-03-04T04:25:25;28.48;;;11.45;;
75167;SDS011;63748;48.088;11.476;2023-03-04T04:27:51;27.92;;;11.70;;
75167;SDS011;63748;48.088;11.476;2023-03-04T04:30:17;25.52;;;11.40;;
75167;SDS011;63748;48.088;11.476;2023-03-04T04:32:43;28.92;;;11.38;;
75167;SDS011;63748;48.088;11.476;2023-03-04T04:35:09;26.40;;;11.70;;
75167;SDS011;63748;48.088;11.476;2023-03-04T04:37:35;27.95;;;12.27;;
75167;SDS011;63748;48.088;11.476;2023-03-04T04:40:02;29.73;;;11.80;;
75167;SDS011;63748;48.088;11.476;2023-03-04T04:42:28;29.73;;;11.88;;
75167;SDS011;63748;48.088;11.476;2023-03-04T04:44:54;29.95;;;13.27;;
75167;SDS011;63748;48.088;11.476;2023-03-04T04:47:21;24.85;;;11.05;;
75167;SDS011;63748;48.088;11.476;2023-03-04T04:49:47;29.33;;;12.98;;
75167;SDS011;63748;48.088;11.476;2023-03-04T04:52:13;30.35;;;12.63;;
75167;SDS011;63748;48.088;11.476;2023-03-04T04:54:40;26.33;;;11.75;;
75167;SDS011;63748;48.088;11.476;2023-03-04T04:57:06;23.38;;;10.27;;
75167;SDS011;63748;48.088;11.476;2023-03-04T04:59:32;31.65;;;13.45;;
75167;SDS011;63748;48.088;11.476;2023-03-04T05:01:58;27.92;;;11.82;;
75167;SDS011;63748;48.088;11.476;2023-03-04T05:04:24;30.70;;;13.20;;
75167;SDS011;63748;48.088;11.476;2023-03-04T05:06:50;30.85;;;11.75;;
75167;SDS011;63748;48.088;11.476;2023-03-04T05:09:16;29.25;;;11.70;;
75167;SDS011;63748;48.088;11.476;2023-03-04T05:11:43;32.20;;;13.05;;
75167;SDS011;63748;48.088;11.476;2023-03-04T05:14:09;28.30;;;10.98;;
75167;SDS011;63748;48.088;11.476;2023-03-04T05:16:35;22.63;;;11.38;;
75167;SDS011;63748;48.088;11.476;2023-03-04T05:19:01;27.55;;;11.77;;
75167;SDS011;63748;48.088;11.476;2023-03-04T05:21:27;28.52;;;12.73;;
75167;SDS011;63748;48.088;11.476;2023-03-04T05:23:53;22.48;;;10.05;;
75167;SDS011;63748;48.088;11.476;2023-03-04T05:26:19;27.90;;;11.38;;
75167;SDS011;63748;48.088;11.476;2023-03-04T05:28:45;29.45;;;10.70;;
75167;SDS011;63748;48.088;11.476;2023-03-04T05:31:11;27.40;;;11.38;;
75167;SDS011;63748;48.088;11.476;2023-03-04T05:33:37;32.33;;;13.70;;
75167;SDS011;63748;48.088;11.476;2023-03-04T05:36:04;28.25;;;11.60;;
75167;SDS011;63748;48.088;11.476;2023-03-04T05:38:30;24.25;;;10.57;;
75167;SDS011;63748;48.088;11.476;2023-03-04T05:40:57;26.55;;;11.25;;
75167;SDS011;63748;48.088;11.476;2023-03-04T05:43:23;29.88;;;11.50;;
75167;SDS011;63748;48.088;11.476;2023-03-04T05:45:49;21.80;;;9.73;;
75167;SDS011;63748;48.088;11.476;2023-03-04T05:48:18;24.27;;;10.02;;
75167;SDS011;63748;48.088;11.476;2023-03-04T05:50:45;27.15;;;11.50;;
75167;SDS011;63748;48.088;11.476;2023-03-04T05:53:11;26.73;;;10.70;;
75167;SDS011;63748;48.088;11.476;2023-03-04T05:55:37;25.75;;;11.52;;
75167;SDS011;63748;48.088;11.476;2023-03-04T05:58:03;28.00;;;11.43;;
75167;SDS011;63748;48.088;11.476;2023-03-04T06:00:29;23.10;;;11.10;;
75167;SDS011;63748;48.088;11.476;2023-03-04T06:02:55;24.30;;;11.88;;
75167;SDS011;63748;48.088;11.476;2023-03-04T06:05:21;25.42;;;12.18;;
75167;SDS011;63748;48.088;11.476;2023-03-04T06:07:47;25.58;;;11.60;;
75167;SDS011;63748;48.088;11.476;2023-03-04T06:10:15;25.65;;;11.57;;
75167;SDS011;63748;48.088;11.476;2023-03-04T06:12:41;24.15;;;10.98;;
75167;SDS011;63748;48.088;11.476;2023-03-04T06:15:08;24.92;;;11.00;;
75167;SDS011;63748;48.088;11.476;2023-03-04T06:17:34;24.80;;;11.43;;
75167;SDS011;63748;48.088;11.476;2023-03-04T06:20:00;22.92;;;11.25;;
75167;SDS011;63748;48.088;11.476;2023-03-04T06:22:26;21.65;;;11.07;;
75167;SDS011;63748;48.088;11.476;2023-03-04T06:24:52;25.67;;;11.20;;
75167;SDS011;63748;48.088;11.476;2023-03-04T06:27:18;27.20;;;11.25;;
75167;SDS011;63748;48.088;11.476;2023-03-04T06:29:44;25.70;;;11.73;;
75167;SDS011;63748;48.088;11.476;2023-03-04T06:32:11;28.75;;;11.75;;
75167;SDS011;63748;48.088;11.476;2023-03-04T06:34:37;25.60;;;11.73;;
75167;SDS011;63748;48.088;11.476;2023-03-04T06:37:03;20.35;;;10.23;;
75167;SDS011;63748;48.088;11.476;2023-03-04T06:39:29;23.17;;;10.90;;
75167;SDS011;63748;48.088;11.476;2023-03-04T06:41:55;26.13;;;11.52;;
75167;SDS011;63748;48.088;11.476;2023-03-04T06:44:21;24.10;;;11.02;;
75167;SDS011;63748;48.088;11.476;2023-03-04T06:46:47;27.58;;;11.82;;
75167;SDS011;63748;48.088;11.476;2023-03-04T06:49:13;25.50;;;10.93;;
75167;SDS011;63748;48.088;11.476;2023-03-04T06:51:39;25.67;;;11.75;;
75167;SDS011;63748;48.088;11.476;2023-03-04T06:54:05;26.50;;;10.90;;
75167;SDS011;63748;48.088;11.476;2023-03-04T06:56:31;22.05;;;11.07;;
75167;SDS011;63748;48.088;11.476;2023-03-04T06:58:57;30.10;;;11.45;;
75167;SDS011;63748;48.088;11.476;2023-03-04T07:01:24;23.35;;;10.50;;
75167;SDS011;63748;48.088;11.476;2023-03-04T07:03:51;26.23;;;11.98;;
75167;SDS011;63748;48.088;11.476;2023-03-04T07:06:18;30.10;;;12.45;;
75167;SDS011;63748;48.088;11.476;2023-03-04T07:08:45;27.35;;;12.95;;
75167;SDS011;63748;48.088;11.476;2023-03-04T07:11:11;28.30;;;12.48;;
75167;SDS011;63748;48.088;11.476;2023-03-04T07:13:38;25.35;;;12.07;;
75167;SDS011;63748;48.088;11.476;2023-03-04T07:16:05;29.42;;;12.60;;
75167;SDS011;63748;48.088;11.476;2023-03-04T07:18:31;29.13;;;13.10;;
75167;SDS011;63748;48.088;11.476;2023-03-04T07:20:57;32.72;;;13.20;;
75167;SDS011;63748;48.088;11.476;2023-03-04T07:23:23;32.10;;;12.85;;
75167;SDS011;63748;48.088;11.476;2023-03-04T07:25:49;31.88;;;13.52;;
75167;SDS011;63748;48.088;11.476;2023-03-04T07:28:16;27.63;;;12.45;;
75167;SDS011;63748;48.088;11.476;2023-03-04T07:30:42;31.88;;;13.65;;
75167;SDS011;63748;48.088;11.476;2023-03-04T07:33:08;29.42;;;14.07;;
75167;SDS011;63748;48.088;11.476;2023-03-04T07:35:34;25.92;;;15.07;;
75167;SDS011;63748;48.088;11.476;2023-03-04T07:38:00;31.48;;;14.50;;
75167;SDS011;63748;48.088;11.476;2023-03-04T07:40:26;32.05;;;13.60;;
75167;SDS011;63748;48.088;11.476;2023-03-04T07:42:53;33.75;;;14.40;;
75167;SDS011;63748;48.088;11.476;2023-03-04T07:45:19;24.60;;;11.10;;
75167;SDS011;63748;48.088;11.476;2023-03-04T07:47:45;30.08;;;12.27;;
75167;SDS011;63748;48.088;11.476;2023-03-04T07:50:11;35.80;;;15.25;;
75167;SDS011;63748;48.088;11.476;2023-03-04T07:52:38;31.90;;;13.88;;
75167;SDS011;63748;48.088;11.476;2023-03-04T07:55:04;27.15;;;11.43;;
75167;SDS011;63748;48.088;11.476;2023-03-04T07:57:31;26.30;;;12.98;;
75167;SDS011;63748;48.088;11.476;2023-03-04T07:59:57;25.98;;;11.13;;
75167;SDS011;63748;48.088;11.476;2023-03-04T08:02:23;36.10;;;13.88;;
75167;SDS011;63748;48.088;11.476;2023-03-04T08:04:49;27.92;;;13.30;;
75167;SDS011;63748;48.088;11.476;2023-03-04T08:07:15;30.65;;;12.70;;
75167;SDS011;63748;48.088;11.476;2023-03-04T08:09:41;29.42;;;12.85;;
75167;SDS011;63748;48.088;11.476;2023-03-04T08:12:07;25.95;;;13.45;;
75167;SDS011;63748;48.088;11.476;2023-03-04T08:14:33;24.17;;;12.85;;
75167;SDS011;63748;48.088;11.476;2023-03-04T08:17:00;39.00;;;14.50;;
75167;SDS011;63748;48.088;11.476;2023-03-04T08:19:26;38.13;;;16.58;;
75167;SDS011;63748;48.088;11.476;2023-03-04T08:21:52;28.08;;;14.50;;
75167;SDS011;63748;48.088;11.476;2023-03-04T08:24:18;35.22;;;17.27;;
75167;SDS011;63748;48.088;11.476;2023-03-04T08:26:45;32.55;;;14.38;;
75167;SDS011;63748;48.088;11.476;2023-03-04T08:29:13;41.92;;;17.85;;
75167;SDS011;63748;48.088;11.476;2023-03-04T08:31:40;37.40;;;15.35;;
75167;SDS011;63748;48.088;11.476;2023-03-04T08:34:06;35.33;;;15.10;;
75167;SDS011;63748;48.088;11.476;2023-03-04T08:36:34;35.83;;;15.75;;
75167;SDS011;63748;48.088;11.476;2023-03-04T08:39:00;32.17;;;15.73;;
75167;SDS011;63748;48.088;11.476;2023-03-04T08:41:26;37.45;;;17.00;;
75167;SDS011;63748;48.088;11.476;2023-03-04T08:43:53;40.10;;;15.50;;
75167;SDS011;63748;48.088;11.476;2023-03-04T08:46:19;32.17;;;15.05;;
75167;SDS011;63748;48.088;11.476;2023-03-04T08:48:45;32.60;;;16.40;;
75167;SDS011;63748;48.088;11.476;2023-03-04T08:51:12;31.42;;;14.48;;
75167;SDS011;63748;48.088;11.476;2023-03-04T08:53:40;33.03;;;15.10;;
75167;SDS011;63748;48.088;11.476;2023-03-04T08:56:06;33.72;;;15.82;;
75167;SDS011;63748;48.088;11.476;2023-03-04T08:58:32;27.63;;;13.98;;
75167;SDS011;63748;48.088;11.476;2023-03-04T09:00:59;35.05;;;14.73;;
75167;SDS011;63748;48.088;11.476;2023-03-04T09:03:25;29.70;;;12.15;;
75167;SDS011;63748;48.088;11.476;2023-03-04T09:05:51;29.35;;;13.23;;
75167;SDS011;63748;48.088;11.476;2023-03-04T09:08:17;29.98;;;13.50;;
75167;SDS011;63748;48.088;11.476;2023-03-04T09:10:44;31.63;;;13.85;;
75167;SDS011;63748;48.088;11.476;2023-03-04T09:13:10;32.92;;;13.82;;
75167;SDS011;63748;48.088;11.476;2023-03-04T09:15:42;29.60;;;12.00;;
75167;SDS011;63748;48.088;11.476;2023-03-04T09:18:08;27.33;;;14.52;;
75167;SDS011;63748;48.088;11.476;2023-03-04T09:20:34;24.90;;;11.68;;
75167;SDS011;63748;48.088;11.476;2023-03-04T09:23:00;20.45;;;10.63;;
75167;SDS011;63748;48.088;11.476;2023-03-04T09:25:26;22.63;;;12.57;;
75167;SDS011;63748;48.088;11.476;2023-03-04T09:27:53;26.17;;;10.73;;
75167;SDS011;63748;48.088;11.476;2023-03-04T09:30:19;30.85;;;12.63;;
75167;SDS011;63748;48.088;11.476;2023-03-04T09:32:45;27.75;;;12.38;;
75167;SDS011;63748;48.088;11.476;2023-03-04T09:35:11;31.00;;;13.68;;
75167;SDS011;63748;48.088;11.476;2023-03-04T09:37:37;26.83;;;12.32;;
75167;SDS011;63748;48.088;11.476;2023-03-04T09:40:03;28.80;;;13.07;;
75167;SDS011;63748;48.088;11.476;2023-03-04T09:42:34;27.70;;;14.23;;
75167;SDS011;63748;48.088;11.476;2023-03-04T09:45:01;27.42;;;13.30;;
75167;SDS011;63748;48.088;11.476;2023-03-04T09:47:28;27.98;;;14.82;;
75167;SDS011;63748;48.088;11.476;2023-03-04T09:49:59;24.38;;;12.25;;
75167;SDS011;63748;48.088;11.476;2023-03-04T09:54:57;30.33;;;13.98;;
75167;SDS011;63748;48.088;11.476;2023-03-04T10:00:14;27.17;;;13.52;;
75167;SDS011;63748;48.088;11.476;2023-03-04T10:02:46;26.50;;;12.63;;
75167;SDS011;63748;48.088;11.476;2023-03-04T10:05:17;26.50;;;13.48;;
75167;SDS011;63748;48.088;11.476;2023-03-04T10:07:45;29.08;;;14.57;;
75167;SDS011;63748;48.088;11.476;2023-03-04T10:10:18;29.42;;;12.02;;
75167;SDS011;63748;48.088;11.476;2023-03-04T10:12:45;25.73;;;13.00;;
75167;SDS011;63748;48.088;11.476;2023-03-04T10:17:39;27.70;;;12.30;;
75167;SDS011;63748;48.088;11.476;2023-03-04T10:22:41;28.50;;;13.15;;
75167;SDS011;63748;48.088;11.476;2023-03-04T10:27:47;25.98;;;13.07;;
75167;SDS011;63748;48.088;11.476;2023-03-04T10:30:17;25.73;;;12.30;;
75167;SDS011;63748;48.088;11.476;2023-03-04T10:32:45;24.98;;;11.02;;
75167;SDS011;63748;48.088;11.476;2023-03-04T10:35:12;24.17;;;10.65;;
75167;SDS011;63748;48.088;11.476;2023-03-04T10:37:44;22.08;;;10.52;;
75167;SDS011;63748;48.088;11.476;2023-03-04T10:40:18;19.77;;;9.63;;
75167;SDS011;63748;48.088;11.476;2023-03-04T10:42:44;19.70;;;9.43;;
75167;SDS011;63748;48.088;11.476;2023-03-04T10:45:20;21.00;;;10.75;;
75167;SDS011;63748;48.088;11.476;2023-03-04T10:47:54;22.20;;;10.48;;
75167;SDS011;63748;48.088;11.476;2023-03-04T10:50:27;21.40;;;10.32;;
75167;SDS011;63748;48.088;11.476;2023-03-04T10:52:53;25.83;;;12.48;;
75167;SDS011;63748;48.088;11.476;2023-03-04T10:55:40;25.73;;;12.00;;
75167;SDS011;63748;48.088;11.476;2023-03-04T10:58:06;22.85;;;12.02;;
75167;SDS011;63748;48.088;11.476;2023-03-04T11:00:37;22.15;;;12.02;;
75167;SDS011;63748;48.088;11.476;2023-03-04T11:05:48;21.30;;;11.02;;
75167;SDS011;63748;48.088;11.476;2023-03-04T11:08:21;21.60;;;10.80;;
75167;SDS011;63748;48.088;11.476;2023-03-04T11:10:48;26.10;;;12.48;;
75167;SDS011;63748;48.088;11.476;2023-03-04T11:13:17;26.77;;;13.02;;
75167;SDS011;63748;48.088;11.476;2023-03-04T11:15:49;25.83;;;12.43;;
75167;SDS011;63748;48.088;11.476;2023-03-04T11:18:15;23.15;;;11.30;;
75167;SDS011;63748;48.088;11.476;2023-03-04T11:20:43;22.17;;;11.45;;
75167;SDS011;63748;48.088;11.476;2023-03-04T11:23:17;24.58;;;11.95;;
75167;SDS011;63748;48.088;11.476;2023-03-04T11:25:46;23.13;;;12.38;;
75167;SDS011;63748;48.088;11.476;2023-03-04T11:28:16;24.80;;;12.05;;
75167;SDS011;63748;48.088;11.476;2023-03-04T11:30:44;21.27;;;12.13;;
75167;SDS011;63748;48.088;11.476;2023-03-04T11:33:21;26.42;;;10.88;;
75167;SDS011;63748;48.088;11.476;2023-03-04T11:35:53;21.70;;;11.18;;
75167;SDS011;63748;48.088;11.476;2023-03-04T11:38:24;24.30;;;13.13;;
75167;SDS011;63748;48.088;11.476;2023-03-04T11:40:53;26.80;;;13.40;;
75167;SDS011;63748;48.088;11.476;2023-03-04T11:43:38;23.08;;;12.88;;
75167;SDS011;63748;48.088;11.476;2023-03-04T11:51:31;25.17;;;12.63;;
75167;SDS011;63748;48.088;11.476;2023-03-04T11:59:06;24.20;;;10.85;;
75167;SDS011;63748;48.088;11.476;2023-03-04T12:12:05;29.30;;;15.35;;
75167;SDS011;63748;48.088;11.476;2023-03-04T12:14:40;30.90;;;13.63;;
75167;SDS011;63748;48.088;11.476;2023-03-04T12:25:11;24.00;;;13.30;;
75167;SDS011;63748;48.088;11.476;2023-03-04T12:33:32;26.40;;;13.18;;
75167;SDS011;63748;48.088;11.476;2023-03-04T12:36:13;25.08;;;12.88;;
75167;SDS011;63748;48.088;11.476;2023-03-04T12:41:28;23.38;;;12.23;;
75167;SDS011;63748;48.088;11.476;2023-03-04T12:54:55;29.25;;;15.20;;
75167;SDS011;63748;48.088;11.476;2023-03-04T12:57:25;24.65;;;14.00;;
75167;SDS011;63748;48.088;11.476;2023-03-04T13:13:42;21.40;;;11.23;;
75167;SDS011;63748;48.088;11.476;2023-03-04T13:18:43;26.63;;;13.10;;
75167;SDS011;63748;48.088;11.476;2023-03-04T13:23:39;25.65;;;11.77;;
75167;SDS011;63748;48.088;11.476;2023-03-04T13:29:32;26.95;;;13.75;;
75167;SDS011;63748;48.088;11.476;2023-03-04T13:31:58;26.52;;;12.63;;
75167;SDS011;63748;48.088;11.476;2023-03-04T13:37:26;22.92;;;12.52;;
75167;SDS011;63748;48.088;11.476;2023-03-04T13:42:40;24.00;;;12.63;;
75167;SDS011;63748;48.088;11.476;2023-03-04T13:47:51;29.23;;;12.77;;
75167;SDS011;63748;48.088;11.476;2023-03-04T13:50:23;26.70;;;13.15;;
75167;SDS011;63748;48.088;11.476;2023-03-04T13:52:50;23.63;;;12.82;;
75167;SDS011;63748;48.088;11.476;2023-03-04T13:55:33;27.75;;;11.95;;
75167;SDS011;63748;48.088;11.476;2023-03-04T13:58:00;23.15;;;11.43;;
75167;SDS011;63748;48.088;11.476;2023-03-04T14:00:26;18.30;;;11.00;;
75167;SDS011;63748;48.088;11.476;2023-03-04T14:02:53;23.13;;;11.95;;
75167;SDS011;63748;48.088;11.476;2023-03-04T14:05:19;21.45;;;11.52;;
75167;SDS011;63748;48.088;11.476;2023-03-04T14:07:45;23.95;;;11.80;;
75167;SDS011;63748;48.088;11.476;2023-03-04T14:13:00;22.13;;;12.00;;
75167;SDS011;63748;48.088;11.476;2023-03-04T14:15:26;22.77;;;12.82;;
75167;SDS011;63748;48.088;11.476;2023-03-04T14:17:53;19.65;;;9.73;;
75167;SDS011;63748;48.088;11.476;2023-03-04T14:20:30;25.10;;;11.82;;
75167;SDS011;63748;48.088;11.476;2023-03-04T14:22:58;26.30;;;12.27;;
75167;SDS011;63748;48.088;11.476;2023-03-04T14:25:28;22.67;;;13.13;;
75167;SDS011;63748;48.088;11.476;2023-03-04T14:28:01;20.45;;;10.38;;
75167;SDS011;63748;48.088;11.476;2023-03-04T14:30:28;22.25;;;10.80;;
75167;SDS011;63748;48.088;11.476;2023-03-04T14:32:55;21.30;;;11.88;;
75167;SDS011;63748;48.088;11.476;2023-03-04T14:35:27;21.55;;;12.93;;
75167;SDS011;63748;48.088;11.476;2023-03-04T14:37:58;22.25;;;12.15;;
75167;SDS011;63748;48.088;11.476;2023-03-04T14:40:26;23.30;;;10.60;;
75167;SDS011;63748;48.088;11.476;2023-03-04T14:42:55;22.73;;;12.05;;
75167;SDS011;63748;48.088;11.476;2023-03-04T14:45:22;25.90;;;10.75;;
75167;SDS011;63748;48.088;11.476;2023-03-04T14:47:48;23.48;;;11.25;;
75167;SDS011;63748;48.088;11.476;2023-03-04T14:50:19;25.42;;;11.23;;
75167;SDS011;63748;48.088;11.476;2023-03-04T14:52:46;20.63;;;11.63;;
75167;SDS011;63748;48.088;11.476;2023-03-04T14:57:39;19.38;;;9.88;;
75167;SDS011;63748;48.088;11.476;2023-03-04T15:03:03;17.48;;;9.02;;
75167;SDS011;63748;48.088;11.476;2023-03-04T15:05:30;17.65;;;8.43;;
75167;SDS011;63748;48.088;11.476;2023-03-04T15:08:01;16.25;;;8.23;;
75167;SDS011;63748;48.088;11.476;2023-03-04T15:10:29;15.00;;;7.57;;
75167;SDS011;63748;48.088;11.476;2023-03-04T15:12:56;17.52;;;7.88;;
75167;SDS011;63748;48.088;11.476;2023-03-04T15:15:32;18.00;;;8.38;;
75167;SDS011;63748;48.088;11.476;2023-03-04T15:18:11;13.68;;;7.38;;
75167;SDS011;63748;48.088;11.476;2023-03-04T15:20:39;17.85;;;8.50;;
75167;SDS011;63748;48.088;11.476;2023-03-04T15:23:05;15.57;;;7.95;;
75167;SDS011;63748;48.088;11.476;2023-03-04T15:25:31;10.82;;;6.65;;
75167;SDS011;63748;48.088;11.476;2023-03-04T15:27:58;18.60;;;8.85;;
75167;SDS011;63748;48.088;11.476;2023-03-04T15:30:28;17.70;;;8.75;;
75167;SDS011;63748;48.088;11.476;2023-03-04T15:32:54;18.88;;;8.15;;
75167;SDS011;63748;48.088;11.476;2023-03-04T15:35:21;16.02;;;8.48;;
75167;SDS011;63748;48.088;11.476;2023-03-04T15:37:47;13.55;;;6.72;;
75167;SDS011;63748;48.088;11.476;2023-03-04T15:40:37;14.70;;;7.13;;
75167;SDS011;63748;48.088;11.476;2023-03-04T15:43:03;15.98;;;6.85;;
75167;SDS011;63748;48.088;11.476;2023-03-04T15:45:31;12.63;;;6.78;;
75167;SDS011;63748;48.088;11.476;2023-03-04T15:48:00;16.10;;;7.15;;
75167;SDS011;63748;48.088;11.476;2023-03-04T15:50:31;12.80;;;5.95;;
75167;SDS011;63748;48.088;11.476;2023-03-04T15:53:00;15.65;;;7.20;;
75167;SDS011;63748;48.088;11.476;2023-03-04T15:57:52;14.27;;;7.18;;